Time,TemperatureF,DewpointF,PressureIn,WindDirection,WindDirectionDegrees,WindSpeedMPH,WindSpeedGustMPH,Humidity,HourlyPrecipIn,Conditions,Clouds,dailyrainin,SoftwareType,DateUTC
2013-03-04 00:00:00,29.7,20.8,29.84,North,354,8.0,15.0,69,0.00,,OVC042,0.00,VWS V14.01,2013-03-04 05:00:00,
2013-03-04 00:05:00,29.6,20.7,29.84,NW,304,9.0,11.0,69,0.00,,OVC040,0.00,VWS V14.01,2013-03-04 05:05:00,
2013-03-04 00:10:00,29.6,20.7,29.84,WNW,295,7.0,11.0,69,0.00,,OVC040,0.00,VWS V14.01,2013-03-04 05:10:00,
2013-03-04 00:15:00,29.6,20.7,29.84,WNW,289,7.0,17.0,69,0.00,,OVC040,0.00,VWS V14.01,2013-03-04 05:15:00,
2013-03-04 00:21:00,29.5,20.3,29.84,WNW,295,9.0,21.0,68,0.00,,OVC040,0.00,VWS V14.01,2013-03-04 05:21:00,
2013-03-04 00:26:00,29.5,20.6,29.85,NNW,338,8.0,11.0,69,0.00,,OVC040,0.00,VWS V14.01,2013-03-04 05:26:00,
2013-03-04 00:31:00,29.4,20.5,29.84,North,355,8.0,10.0,69,0.00,,OVC040,0.00,VWS V14.01,2013-03-04 05:31:00,
2013-03-04 00:36:00,29.4,20.8,29.84,WNW,297,4.0,9.0,70,0.00,,OVC040,0.00,VWS V14.01,2013-03-04 05:36:00,
2013-03-04 00:41:00,29.4,20.5,29.85,WNW,297,5.0,11.0,69,0.00,,OVC040,0.00,VWS V14.01,2013-03-04 05:41:00,
2013-03-04 00:46:00,29.3,20.7,29.85,West,271,9.0,9.0,70,0.00,,OVC040,0.00,VWS V14.01,2013-03-04 05:46:00,
2013-03-04 00:51:00,29.3,20.4,29.85,WNW,285,7.0,13.0,69,0.00,,OVC040,0.00,VWS V14.01,2013-03-04 05:51:00,
2013-03-04 00:56:00,29.2,20.3,29.85,WNW,294,7.0,16.0,69,0.00,,OVC040,0.00,VWS V14.01,2013-03-04 05:56:00,
2013-03-04 01:01:00,29.2,20.6,29.85,WNW,301,14.0,17.0,70,0.00,,OVC040,0.00,VWS V14.01,2013-03-04 06:01:00,
2013-03-04 01:06:00,29.0,20.5,29.85,WNW,295,8.0,11.0,70,0.00,,OVC038,0.00,VWS V14.01,2013-03-04 06:06:00,
2013-03-04 01:11:00,29.0,20.1,29.85,WNW,296,7.0,16.0,69,0.00,,OVC038,0.00,VWS V14.01,2013-03-04 06:11:00,
2013-03-04 01:16:00,28.9,20.0,29.85,WNW,300,10.0,17.0,69,0.00,,OVC038,0.00,VWS V14.01,2013-03-04 06:16:00,
2013-03-04 01:22:00,28.9,20.4,29.85,WNW,288,7.0,10.0,70,0.00,,OVC038,0.00,VWS V14.01,2013-03-04 06:22:00,
2013-03-04 01:27:00,28.8,20.3,29.85,WNW,293,5.0,10.0,70,0.00,,OVC038,0.00,VWS V14.01,2013-03-04 06:27:00,
2013-03-04 01:32:00,28.8,20.3,29.85,NW,317,6.0,11.0,70,0.00,,OVC038,0.00,VWS V14.01,2013-03-04 06:32:00,
2013-03-04 01:37:00,28.6,20.1,29.85,NW,310,6.0,14.0,70,0.00,,OVC038,0.00,VWS V14.01,2013-03-04 06:37:00,
2013-03-04 01:42:00,28.5,19.6,29.85,WNW,283,6.0,14.0,69,0.00,,OVC038,0.00,VWS V14.01,2013-03-04 06:42:00,
2013-03-04 01:47:00,28.4,19.5,29.85,WSW,255,8.0,11.0,69,0.00,,OVC038,0.00,VWS V14.01,2013-03-04 06:47:00,
2013-03-04 01:52:00,28.3,19.1,29.85,NW,305,9.0,13.0,68,0.00,,OVC038,0.00,VWS V14.01,2013-03-04 06:52:00,
2013-03-04 01:57:00,28.2,19.4,29.85,NNW,338,3.0,14.0,69,0.00,,OVC038,0.00,VWS V14.01,2013-03-04 06:57:00,
2013-03-04 02:02:00,28.1,19.3,29.85,WNW,295,8.0,12.0,69,0.00,,OVC040,0.00,VWS V14.01,2013-03-04 07:02:00,
2013-03-04 02:07:00,28.0,19.2,29.85,West,273,9.0,12.0,69,0.00,,OVC040,0.00,VWS V14.01,2013-03-04 07:07:00,
2013-03-04 02:12:00,27.8,19.0,29.85,NW,305,5.0,13.0,69,0.00,,OVC040,0.00,VWS V14.01,2013-03-04 07:12:00,
2013-03-04 02:17:00,27.7,18.9,29.85,WNW,298,5.0,11.0,69,0.00,,OVC040,0.00,VWS V14.01,2013-03-04 07:17:00,
2013-03-04 02:22:00,27.5,18.7,29.85,WNW,289,8.0,13.0,69,0.00,,OVC040,0.00,VWS V14.01,2013-03-04 07:22:00,
2013-03-04 02:27:00,27.5,18.3,29.85,NW,323,8.0,17.0,68,0.00,,OVC040,0.00,VWS V14.01,2013-03-04 07:27:00,
2013-03-04 02:33:00,27.4,17.9,29.85,WNW,293,8.0,15.0,67,0.00,,OVC040,0.00,VWS V14.01,2013-03-04 07:33:00,
2013-03-04 02:37:00,27.4,17.9,29.85,WNW,295,6.0,17.0,67,0.00,,OVC040,0.00,VWS V14.01,2013-03-04 07:37:00,
2013-03-04 02:43:00,27.2,17.7,29.85,WNW,295,9.0,16.0,67,0.00,,OVC040,0.00,VWS V14.01,2013-03-04 07:43:00,
2013-03-04 02:48:00,27.1,17.6,29.85,NNW,330,6.0,11.0,67,0.00,,OVC040,0.00,VWS V14.01,2013-03-04 07:48:00,
2013-03-04 02:53:00,26.9,17.4,29.85,WNW,284,6.0,15.0,67,0.00,,OVC040,0.00,VWS V14.01,2013-03-04 07:53:00,
2013-03-04 02:58:00,26.9,17.8,29.85,NNW,331,7.0,12.0,68,0.00,,OVC040,0.00,VWS V14.01,2013-03-04 07:58:00,
2013-03-04 03:03:00,26.9,17.4,29.85,West,273,5.0,13.0,67,0.00,,OVC042,0.00,VWS V14.01,2013-03-04 08:03:00,
2013-03-04 03:08:00,26.9,17.4,29.85,WNW,295,12.0,16.0,67,0.00,,OVC042,0.00,VWS V14.01,2013-03-04 08:08:00,
2013-03-04 03:13:00,26.9,17.4,29.85,WNW,283,4.0,14.0,67,0.00,,OVC042,0.00,VWS V14.01,2013-03-04 08:13:00,
2013-03-04 03:18:00,26.9,17.4,29.85,WNW,300,7.0,12.0,67,0.00,,OVC042,0.00,VWS V14.01,2013-03-04 08:18:00,
2013-03-04 03:23:00,26.8,17.3,29.85,WNW,301,6.0,13.0,67,0.00,,OVC042,0.00,VWS V14.01,2013-03-04 08:23:00,
2013-03-04 03:28:00,26.8,17.3,29.85,NW,311,13.0,13.0,67,0.00,,OVC042,0.00,VWS V14.01,2013-03-04 08:28:00,
2013-03-04 03:33:00,26.8,17.3,29.86,WNW,298,4.0,12.0,67,0.00,,OVC042,0.00,VWS V14.01,2013-03-04 08:33:00,
2013-03-04 03:38:00,26.8,17.3,29.86,WNW,292,5.0,11.0,67,0.00,,OVC042,0.00,VWS V14.01,2013-03-04 08:38:00,
2013-03-04 03:43:00,26.8,17.7,29.85,NW,307,7.0,12.0,68,0.00,,OVC042,0.00,VWS V14.01,2013-03-04 08:43:00,
2013-03-04 03:48:00,26.8,17.7,29.86,NW,315,8.0,15.0,68,0.00,,OVC042,0.00,VWS V14.01,2013-03-04 08:48:00,
2013-03-04 03:53:00,26.8,17.3,29.86,WNW,297,10.0,20.0,67,0.00,,OVC042,0.00,VWS V14.01,2013-03-04 08:53:00,
2013-03-04 03:58:00,26.9,17.4,29.86,West,274,8.0,16.0,67,0.00,,OVC042,0.00,VWS V14.01,2013-03-04 08:58:00,
2013-03-04 04:03:00,26.8,17.3,29.86,WNW,290,6.0,16.0,67,0.00,,BKN040,0.00,VWS V14.01,2013-03-04 09:03:00,
2013-03-04 04:08:00,26.8,17.7,29.86,NW,304,9.0,12.0,68,0.00,,BKN040,0.00,VWS V14.01,2013-03-04 09:08:00,
2013-03-04 04:13:00,26.7,17.6,29.86,WNW,295,9.0,17.0,68,0.00,,BKN040,0.00,VWS V14.01,2013-03-04 09:13:00,
2013-03-04 04:18:00,26.7,17.6,29.86,NW,311,7.0,14.0,68,0.00,,BKN040,0.00,VWS V14.01,2013-03-04 09:18:00,
2013-03-04 04:23:00,26.7,17.6,29.87,WNW,285,5.0,12.0,68,0.00,,BKN040,0.00,VWS V14.01,2013-03-04 09:23:00,
2013-03-04 04:28:00,26.6,17.5,29.86,West,266,9.0,17.0,68,0.00,,BKN040,0.00,VWS V14.01,2013-03-04 09:28:00,
2013-03-04 04:34:00,26.6,17.8,29.87,WNW,291,6.0,12.0,69,0.00,,BKN040,0.00,VWS V14.01,2013-03-04 09:34:00,
2013-03-04 04:39:00,26.5,18.0,29.87,West,269,8.0,11.0,70,0.00,,BKN040,0.00,VWS V14.01,2013-03-04 09:39:00,
2013-03-04 04:44:00,26.4,18.0,29.87,WNW,303,8.0,13.0,70,0.00,,BKN040,0.00,VWS V14.01,2013-03-04 09:44:00,
2013-03-04 04:49:00,26.4,18.0,29.87,NNW,341,6.0,16.0,70,0.00,,BKN040,0.00,VWS V14.01,2013-03-04 09:49:00,
2013-03-04 04:54:00,26.4,18.0,29.87,WNW,288,9.0,12.0,70,0.00,,BKN040,0.00,VWS V14.01,2013-03-04 09:54:00,
2013-03-04 04:59:00,26.3,18.2,29.87,WNW,284,8.0,12.0,71,0.00,,BKN040,0.00,VWS V14.01,2013-03-04 09:59:00,
2013-03-04 05:04:00,26.3,18.2,29.87,WNW,295,7.0,16.0,71,0.00,,OVC038,0.00,VWS V14.01,2013-03-04 10:04:00,
2013-03-04 05:09:00,26.3,18.2,29.88,West,271,5.0,15.0,71,0.00,,OVC038,0.00,VWS V14.01,2013-03-04 10:09:00,
2013-03-04 05:14:00,26.2,18.1,29.88,WNW,283,6.0,10.0,71,0.00,,OVC038,0.00,VWS V14.01,2013-03-04 10:14:00,
2013-03-04 05:19:00,25.4,17.3,29.88,West,269,7.0,13.0,71,0.00,,OVC038,0.00,VWS V14.01,2013-03-04 10:19:00,
2013-03-04 05:24:00,25.4,17.3,29.88,West,269,7.0,7.0,71,0.00,,OVC038,0.00,VWS V14.01,2013-03-04 10:24:00,
2013-03-04 05:29:00,25.4,17.3,29.88,West,269,7.0,7.0,71,0.00,,OVC038,0.00,VWS V14.01,2013-03-04 10:29:00,
2013-03-04 05:34:00,25.4,17.3,29.88,West,269,7.0,7.0,71,0.00,,OVC038,0.00,VWS V14.01,2013-03-04 10:34:00,
2013-03-04 05:39:00,25.4,17.3,29.88,West,269,7.0,7.0,71,0.00,,OVC038,0.00,VWS V14.01,2013-03-04 10:39:00,
2013-03-04 05:44:00,25.4,17.3,29.89,West,269,7.0,7.0,71,0.00,,OVC038,0.00,VWS V14.01,2013-03-04 10:44:00,
2013-03-04 05:49:00,25.4,17.3,29.89,West,269,7.0,7.0,71,0.00,,OVC038,0.00,VWS V14.01,2013-03-04 10:49:00,
2013-03-04 05:54:00,25.4,17.3,29.89,West,269,7.0,7.0,71,0.00,,OVC038,0.00,VWS V14.01,2013-03-04 10:54:00,
2013-03-04 05:59:00,25.4,17.3,29.89,West,269,7.0,7.0,71,0.00,,OVC038,0.00,VWS V14.01,2013-03-04 10:59:00,
2013-03-04 06:04:00,25.4,17.3,29.89,West,269,7.0,7.0,71,0.00,,OVC036,0.00,VWS V14.01,2013-03-04 11:04:00,
2013-03-04 06:09:00,25.4,17.3,29.89,West,269,7.0,7.0,71,0.00,,OVC036,0.00,VWS V14.01,2013-03-04 11:09:00,
2013-03-04 06:14:00,25.4,17.3,29.89,West,269,7.0,7.0,71,0.00,,OVC036,0.00,VWS V14.01,2013-03-04 11:14:00,
2013-03-04 06:20:00,25.4,17.3,29.89,West,269,7.0,7.0,71,0.00,,OVC036,0.00,VWS V14.01,2013-03-04 11:20:00,
2013-03-04 06:25:00,25.4,17.3,29.89,West,269,7.0,7.0,71,0.00,,OVC036,0.00,VWS V14.01,2013-03-04 11:25:00,
2013-03-04 06:30:00,25.4,17.3,29.90,West,269,7.0,7.0,71,0.00,,OVC036,0.00,VWS V14.01,2013-03-04 11:30:00,
2013-03-04 06:35:00,25.4,17.3,29.90,West,269,7.0,7.0,71,0.00,,OVC036,0.00,VWS V14.01,2013-03-04 11:35:00,
2013-03-04 06:40:00,25.4,17.3,29.90,West,269,7.0,7.0,71,0.00,,OVC036,0.00,VWS V14.01,2013-03-04 11:40:00,
2013-03-04 06:45:00,25.4,17.3,29.90,West,269,7.0,7.0,71,0.00,,OVC036,0.00,VWS V14.01,2013-03-04 11:45:00,
2013-03-04 06:50:00,25.4,17.3,29.90,West,269,7.0,7.0,71,0.00,,OVC036,0.00,VWS V14.01,2013-03-04 11:50:00,
2013-03-04 06:55:00,25.4,17.3,29.90,West,269,7.0,7.0,71,0.00,,OVC036,0.00,VWS V14.01,2013-03-04 11:55:00,
2013-03-04 07:00:00,25.4,17.3,29.90,West,269,7.0,7.0,71,0.00,,OVC036,0.00,VWS V14.01,2013-03-04 12:00:00,
2013-03-04 07:05:00,25.4,17.3,29.90,West,269,7.0,7.0,71,0.00,,OVC036,0.00,VWS V14.01,2013-03-04 12:05:00,
2013-03-04 07:10:00,25.4,17.3,29.90,West,269,7.0,7.0,71,0.00,,OVC036,0.00,VWS V14.01,2013-03-04 12:10:00,
2013-03-04 07:15:00,25.4,17.3,29.90,West,269,7.0,7.0,71,0.00,,OVC036,0.00,VWS V14.01,2013-03-04 12:15:00,
2013-03-04 07:20:00,25.4,17.3,29.90,West,269,7.0,7.0,71,0.00,,OVC036,0.00,VWS V14.01,2013-03-04 12:20:00,
2013-03-04 07:25:00,26.8,18.3,29.90,WNW,285,11.0,14.0,70,0.00,,OVC036,0.00,VWS V14.01,2013-03-04 12:25:00,
2013-03-04 07:30:00,26.9,18.4,29.91,NW,325,5.0,11.0,70,0.00,,OVC036,0.00,VWS V14.01,2013-03-04 12:30:00,
2013-03-04 07:35:00,26.9,18.4,29.91,NNW,333,2.0,3.0,70,0.00,,OVC036,0.00,VWS V14.01,2013-03-04 12:35:00,
2013-03-04 07:40:00,26.9,18.1,29.91,NW,324,15.0,15.0,69,0.00,,OVC036,0.00,VWS V14.01,2013-03-04 12:40:00,
2013-03-04 07:45:00,26.9,18.1,29.91,NW,308,17.0,17.0,69,0.00,,OVC036,0.00,VWS V14.01,2013-03-04 12:45:00,
2013-03-04 07:50:00,27.0,17.5,29.91,WNW,300,17.0,20.0,67,0.00,,OVC036,0.00,VWS V14.01,2013-03-04 12:50:00,
2013-03-04 07:55:00,27.1,17.6,29.92,WNW,300,8.0,16.0,67,0.00,,OVC036,0.00,VWS V14.01,2013-03-04 12:55:00,
2013-03-04 08:00:00,27.1,17.6,29.92,NW,322,12.0,14.0,67,0.00,,OVC036,0.00,VWS V14.01,2013-03-04 13:00:00,
2013-03-04 08:06:00,27.1,17.6,29.92,NW,315,16.0,16.0,67,0.00,,OVC036,0.00,VWS V14.01,2013-03-04 13:06:00,
2013-03-04 08:11:00,27.1,18.0,29.92,NW,314,7.0,13.0,68,0.00,,OVC036,0.00,VWS V14.01,2013-03-04 13:11:00,
2013-03-04 08:16:00,27.3,18.1,29.93,NNW,328,5.0,16.0,68,0.00,,OVC036,0.00,VWS V14.01,2013-03-04 13:16:00,
2013-03-04 08:21:00,27.4,17.9,29.92,WNW,297,7.0,15.0,67,0.00,,OVC036,0.00,VWS V14.01,2013-03-04 13:21:00,
2013-03-04 08:26:00,27.5,18.0,29.92,NW,307,11.0,15.0,67,0.00,,OVC036,0.00,VWS V14.01,2013-03-04 13:26:00,
2013-03-04 08:31:00,27.6,18.4,29.92,NNW,331,6.0,9.0,68,0.00,,OVC036,0.00,VWS V14.01,2013-03-04 13:31:00,
2013-03-04 08:36:00,27.6,18.1,29.92,WSW,250,9.0,16.0,67,0.00,,OVC036,0.00,VWS V14.01,2013-03-04 13:36:00,
2013-03-04 08:41:00,27.5,18.0,29.92,NW,310,13.0,18.0,67,0.00,,OVC036,0.00,VWS V14.01,2013-03-04 13:41:00,
2013-03-04 08:46:00,27.5,18.3,29.92,NW,321,8.0,20.0,68,0.00,,OVC036,0.00,VWS V14.01,2013-03-04 13:46:00,
2013-03-04 08:51:00,27.5,18.0,29.92,West,276,10.0,18.0,67,0.00,,OVC036,0.00,VWS V14.01,2013-03-04 13:51:00,
2013-03-04 08:57:00,27.4,17.9,29.92,WNW,300,6.0,19.0,67,0.00,,OVC036,0.00,VWS V14.01,2013-03-04 13:57:00,
2013-03-04 09:02:00,27.4,18.2,29.93,WNW,287,11.0,16.0,68,0.00,,OVC036,0.00,VWS V14.01,2013-03-04 14:02:00,
2013-03-04 09:07:00,27.8,18.6,29.92,WNW,283,5.0,16.0,68,0.00,,OVC036,0.00,VWS V14.01,2013-03-04 14:07:00,
2013-03-04 09:12:00,27.9,18.7,29.93,WNW,293,12.0,13.0,68,0.00,,OVC036,0.00,VWS V14.01,2013-03-04 14:12:00,
2013-03-04 09:17:00,27.9,18.7,29.93,WNW,303,10.0,18.0,68,0.00,,OVC036,0.00,VWS V14.01,2013-03-04 14:17:00,
2013-03-04 09:22:00,27.8,18.6,29.93,WNW,295,14.0,15.0,68,0.00,,OVC036,0.00,VWS V14.01,2013-03-04 14:22:00,
2013-03-04 09:27:00,27.7,18.5,29.93,West,276,10.0,17.0,68,0.00,,OVC036,0.00,VWS V14.01,2013-03-04 14:27:00,
2013-03-04 09:32:00,27.7,18.5,29.93,NW,304,14.0,18.0,68,0.00,,OVC036,0.00,VWS V14.01,2013-03-04 14:32:00,
2013-03-04 09:37:00,28.0,19.2,29.93,NW,311,10.0,14.0,69,0.00,,OVC036,0.00,VWS V14.01,2013-03-04 14:37:00,
2013-03-04 09:43:00,28.3,19.1,29.93,West,273,10.0,17.0,68,0.00,,OVC036,0.00,VWS V14.01,2013-03-04 14:43:00,
2013-03-04 09:48:00,28.3,19.1,29.93,West,280,9.0,14.0,68,0.00,,OVC036,0.00,VWS V14.01,2013-03-04 14:48:00,
2013-03-04 09:53:00,28.6,19.4,29.93,WNW,285,10.0,17.0,68,0.00,,OVC036,0.00,VWS V14.01,2013-03-04 14:53:00,
2013-03-04 09:58:00,28.8,19.2,29.92,WNW,289,7.0,28.0,67,0.00,,OVC036,0.00,VWS V14.01,2013-03-04 14:58:00,
2013-03-04 10:03:00,28.6,18.7,29.93,NW,311,7.0,23.0,66,0.00,,OVC032,0.00,VWS V14.01,2013-03-04 15:03:00,
2013-03-04 10:08:00,28.8,18.9,29.93,West,276,15.0,21.0,66,0.00,,OVC032,0.00,VWS V14.01,2013-03-04 15:08:00,
2013-03-04 10:13:00,28.8,18.9,29.93,North,11,13.0,21.0,66,0.00,,OVC032,0.00,VWS V14.01,2013-03-04 15:13:00,
2013-03-04 10:18:00,28.9,19.0,29.93,West,280,9.0,20.0,66,0.00,,OVC032,0.00,VWS V14.01,2013-03-04 15:18:00,
2013-03-04 10:23:00,28.9,19.3,29.93,NNW,333,9.0,16.0,67,0.00,,OVC032,0.00,VWS V14.01,2013-03-04 15:23:00,
2013-03-04 10:28:00,29.2,19.3,29.93,West,263,8.0,17.0,66,0.00,,OVC032,0.00,VWS V14.01,2013-03-04 15:28:00,
2013-03-04 10:33:00,29.6,19.6,29.93,NNW,343,9.0,13.0,66,0.00,,OVC032,0.00,VWS V14.01,2013-03-04 15:33:00,
2013-03-04 10:38:00,29.4,19.1,29.93,WNW,284,14.0,20.0,65,0.00,,OVC032,0.00,VWS V14.01,2013-03-04 15:38:00,
2013-03-04 10:43:00,29.4,19.5,29.93,WNW,284,13.0,20.0,66,0.00,,OVC032,0.00,VWS V14.01,2013-03-04 15:43:00,
2013-03-04 10:48:00,29.4,19.5,29.93,West,277,13.0,18.0,66,0.00,,OVC032,0.00,VWS V14.01,2013-03-04 15:48:00,
2013-03-04 10:53:00,29.6,20.0,29.93,WNW,295,14.0,14.0,67,0.00,,OVC032,0.00,VWS V14.01,2013-03-04 15:53:00,
2013-03-04 10:58:00,29.7,19.4,29.93,WNW,301,8.0,18.0,65,0.00,,OVC032,0.00,VWS V14.01,2013-03-04 15:58:00,
2013-03-04 11:03:00,29.6,19.6,29.92,WNW,288,8.0,15.0,66,0.00,,OVC034,0.00,VWS V14.01,2013-03-04 16:03:00,
2013-03-04 11:08:00,29.8,19.8,29.92,WNW,301,6.0,19.0,66,0.00,,OVC034,0.00,VWS V14.01,2013-03-04 16:08:00,
2013-03-04 11:13:00,30.7,20.3,29.93,WNW,287,11.0,18.0,65,0.00,,OVC034,0.00,VWS V14.01,2013-03-04 16:13:00,
2013-03-04 11:20:00,31.2,20.8,29.93,West,271,8.0,8.0,65,0.00,,OVC034,0.00,VWS V14.01,2013-03-04 16:20:00,
2013-03-04 11:25:00,32.1,21.3,29.93,West,281,8.0,17.0,64,0.00,,OVC034,0.00,VWS V14.01,2013-03-04 16:25:00,
2013-03-04 11:30:00,31.9,20.4,29.92,WNW,295,14.0,16.0,62,0.00,,OVC034,0.00,VWS V14.01,2013-03-04 16:30:00,
2013-03-04 11:35:00,31.8,20.7,29.93,NW,319,10.0,16.0,63,0.00,,OVC034,0.00,VWS V14.01,2013-03-04 16:35:00,
2013-03-04 11:40:00,31.7,20.6,29.93,WNW,295,6.0,18.0,63,0.00,,OVC034,0.00,VWS V14.01,2013-03-04 16:40:00,
2013-03-04 11:45:00,31.6,20.8,29.93,West,271,5.0,10.0,64,0.00,,OVC034,0.00,VWS V14.01,2013-03-04 16:45:00,
2013-03-04 11:51:00,31.4,20.6,29.93,NW,309,13.0,16.0,64,0.00,,OVC034,0.00,VWS V14.01,2013-03-04 16:51:00,
2013-03-04 11:56:00,31.6,20.8,29.93,WNW,288,18.0,21.0,64,0.00,,OVC034,0.00,VWS V14.01,2013-03-04 16:56:00,
2013-03-04 12:01:00,31.6,20.8,29.93,NW,312,11.0,21.0,64,0.00,,OVC034,0.00,VWS V14.01,2013-03-04 17:01:00,
2013-03-04 12:06:00,31.5,20.7,29.93,NW,319,9.0,16.0,64,0.00,,OVC034,0.00,VWS V14.01,2013-03-04 17:06:00,
2013-03-04 12:11:00,31.6,20.8,29.93,WNW,293,15.0,20.0,64,0.00,,OVC034,0.00,VWS V14.01,2013-03-04 17:11:00,
2013-03-04 12:16:00,31.6,20.8,29.93,NW,323,13.0,19.0,64,0.00,,OVC034,0.00,VWS V14.01,2013-03-04 17:16:00,
2013-03-04 12:21:00,31.8,21.4,29.92,WNW,283,9.0,21.0,65,0.00,,OVC034,0.00,VWS V14.01,2013-03-04 17:21:00,
2013-03-04 12:26:00,32.1,20.9,29.92,WNW,295,14.0,21.0,63,0.00,,OVC034,0.00,VWS V14.01,2013-03-04 17:26:00,
2013-03-04 12:31:00,32.1,21.3,29.92,WNW,291,12.0,19.0,64,0.00,,OVC034,0.00,VWS V14.01,2013-03-04 17:31:00,
2013-03-04 12:36:00,31.8,21.0,29.92,NW,319,14.0,17.0,64,0.00,,OVC034,0.00,VWS V14.01,2013-03-04 17:36:00,
2013-03-04 12:41:00,31.7,21.3,29.91,WNW,284,10.0,18.0,65,0.00,,OVC034,0.00,VWS V14.01,2013-03-04 17:41:00,
2013-03-04 12:46:00,32.0,21.6,29.91,WNW,301,11.0,21.0,65,0.00,,OVC034,0.00,VWS V14.01,2013-03-04 17:46:00,
2013-03-04 12:51:00,32.2,22.1,29.91,WNW,295,10.0,12.0,66,0.00,,OVC034,0.00,VWS V14.01,2013-03-04 17:51:00,
2013-03-04 12:56:00,32.3,21.5,29.91,WNW,297,6.0,18.0,64,0.00,,OVC034,0.00,VWS V14.01,2013-03-04 17:56:00,
2013-03-04 13:01:00,32.2,21.4,29.91,West,277,10.0,16.0,64,0.00,,OVC034,0.00,VWS V14.01,2013-03-04 18:01:00,
2013-03-04 13:06:00,32.7,22.2,29.91,WNW,293,10.0,15.0,65,0.00,,BKN038,0.00,VWS V14.01,2013-03-04 18:06:00,
2013-03-04 13:11:00,32.4,21.6,29.91,WNW,300,6.0,12.0,64,0.00,,BKN038,0.00,VWS V14.01,2013-03-04 18:11:00,
2013-03-04 13:16:00,32.3,21.1,29.91,NW,321,15.0,17.0,63,0.00,,BKN038,0.00,VWS V14.01,2013-03-04 18:16:00,
2013-03-04 13:21:00,32.3,21.1,29.91,West,274,10.0,20.0,63,0.00,,BKN038,0.00,VWS V14.01,2013-03-04 18:21:00,
2013-03-04 13:26:00,32.5,21.7,29.90,NW,314,8.0,13.0,64,0.00,,BKN038,0.00,VWS V14.01,2013-03-04 18:26:00,
2013-03-04 13:29:00,33.0,22.9,29.90,WNW,287,7.0,13.0,66,0.00,,BKN038,0.00,VWS V14.01,2013-03-04 18:29:00,
2013-03-04 13:30:00,33.2,23.1,29.90,West,275,12.0,15.0,66,0.00,,BKN038,0.00,VWS V14.01,2013-03-04 18:30:00,
2013-03-04 13:31:00,33.4,22.2,29.90,West,263,7.0,18.0,63,0.00,,BKN038,0.00,VWS V14.01,2013-03-04 18:31:00,
2013-03-04 13:36:00,34.1,22.8,29.89,West,281,9.0,16.0,63,0.00,,BKN038,0.00,VWS V14.01,2013-03-04 18:36:00,
2013-03-04 13:41:00,34.2,22.2,29.89,NW,326,14.0,18.0,61,0.00,,BKN038,0.00,VWS V14.01,2013-03-04 18:41:00,
2013-03-04 13:46:00,34.6,22.9,29.89,NW,307,13.0,23.0,62,0.00,,BKN038,0.00,VWS V14.01,2013-03-04 18:46:00,
2013-03-04 13:51:00,34.5,22.1,29.89,West,276,14.0,22.0,60,0.00,,BKN038,0.00,VWS V14.01,2013-03-04 18:51:00,
2013-03-04 13:56:00,34.5,22.8,29.89,NW,326,16.0,18.0,62,0.00,,BKN038,0.00,VWS V14.01,2013-03-04 18:56:00,
2013-03-04 14:01:00,34.3,22.6,29.89,NW,304,5.0,15.0,62,0.00,,BKN038,0.00,VWS V14.01,2013-03-04 19:01:00,
2013-03-04 14:06:00,34.6,22.5,29.89,WNW,287,9.0,14.0,61,0.00,,FEW040,0.00,VWS V14.01,2013-03-04 19:06:00,
2013-03-04 14:11:00,34.4,22.7,29.90,NNW,328,5.0,23.0,62,0.00,,FEW040,0.00,VWS V14.01,2013-03-04 19:11:00,
2013-03-04 14:16:00,34.4,22.4,29.89,WNW,289,9.0,14.0,61,0.00,,FEW040,0.00,VWS V14.01,2013-03-04 19:16:00,
2013-03-04 14:21:00,33.9,22.6,29.90,NW,323,7.0,12.0,63,0.00,,FEW040,0.00,VWS V14.01,2013-03-04 19:21:00,
2013-03-04 14:26:00,34.3,22.6,29.89,North,349,5.0,18.0,62,0.00,,FEW040,0.00,VWS V14.01,2013-03-04 19:26:00,
2013-03-04 14:32:00,34.9,23.6,29.90,WNW,303,4.0,16.0,63,0.00,,FEW040,0.00,VWS V14.01,2013-03-04 19:32:00,
2013-03-04 14:37:00,35.3,23.6,29.90,WNW,285,9.0,18.0,62,0.00,,FEW040,0.00,VWS V14.01,2013-03-04 19:37:00,
2013-03-04 14:42:00,35.1,23.4,29.89,WNW,285,11.0,16.0,62,0.00,,FEW040,0.00,VWS V14.01,2013-03-04 19:42:00,
2013-03-04 14:47:00,35.1,24.2,29.89,NNW,330,8.0,16.0,64,0.00,,FEW040,0.00,VWS V14.01,2013-03-04 19:47:00,
2013-03-04 14:52:00,35.0,23.3,29.89,WNW,297,9.0,14.0,62,0.00,,FEW040,0.00,VWS V14.01,2013-03-04 19:52:00,
2013-03-04 14:57:00,34.9,23.6,29.90,NW,310,10.0,18.0,63,0.00,,FEW040,0.00,VWS V14.01,2013-03-04 19:57:00,
2013-03-04 15:02:00,35.0,23.7,29.90,West,270,10.0,18.0,63,0.00,,FEW038,0.00,VWS V14.01,2013-03-04 20:02:00,
2013-03-04 15:07:00,34.9,23.6,29.90,West,270,13.0,18.0,63,0.00,,FEW038,0.00,VWS V14.01,2013-03-04 20:07:00,
2013-03-04 15:12:00,35.1,23.4,29.90,WNW,288,9.0,17.0,62,0.00,,FEW038,0.00,VWS V14.01,2013-03-04 20:12:00,
2013-03-04 15:17:00,35.3,24.0,29.90,WNW,293,12.0,18.0,63,0.00,,FEW038,0.00,VWS V14.01,2013-03-04 20:17:00,
2013-03-04 15:22:00,34.9,23.6,29.90,WNW,302,5.0,16.0,63,0.00,,FEW038,0.00,VWS V14.01,2013-03-04 20:22:00,
2013-03-04 15:27:00,34.3,23.0,29.90,NNW,335,13.0,16.0,63,0.00,,FEW038,0.00,VWS V14.01,2013-03-04 20:27:00,
2013-03-04 15:32:00,34.2,22.9,29.90,WNW,284,10.0,15.0,63,0.00,,FEW038,0.00,VWS V14.01,2013-03-04 20:32:00,
2013-03-04 15:37:00,33.9,22.6,29.90,WNW,291,8.0,16.0,63,0.00,,FEW038,0.00,VWS V14.01,2013-03-04 20:37:00,
2013-03-04 15:42:00,33.7,22.5,29.90,WNW,288,13.0,18.0,63,0.00,,FEW038,0.00,VWS V14.01,2013-03-04 20:42:00,
2013-03-04 15:47:00,33.9,23.0,29.91,NW,304,6.0,17.0,64,0.00,,FEW038,0.00,VWS V14.01,2013-03-04 20:47:00,
2013-03-04 15:52:00,34.8,23.9,29.90,NNW,331,17.0,19.0,64,0.00,,FEW038,0.00,VWS V14.01,2013-03-04 20:52:00,
2013-03-04 15:57:00,34.6,22.9,29.90,NW,307,15.0,20.0,62,0.00,,FEW038,0.00,VWS V14.01,2013-03-04 20:57:00,
2013-03-04 16:02:00,34.6,23.3,29.90,WNW,289,4.0,19.0,63,0.00,,SCT042,0.00,VWS V14.01,2013-03-04 21:02:00,
2013-03-04 16:07:00,34.7,23.0,29.90,WSW,257,12.0,15.0,62,0.00,,SCT042,0.00,VWS V14.01,2013-03-04 21:07:00,
2013-03-04 16:13:00,34.6,22.5,29.90,NW,319,17.0,19.0,61,0.00,,SCT042,0.00,VWS V14.01,2013-03-04 21:13:00,
2013-03-04 16:18:00,34.5,22.8,29.90,NW,307,16.0,18.0,62,0.00,,SCT042,0.00,VWS V14.01,2013-03-04 21:18:00,
2013-03-04 16:22:00,34.5,22.8,29.90,WNW,294,7.0,20.0,62,0.00,,SCT042,0.00,VWS V14.01,2013-03-04 21:22:00,
2013-03-04 16:27:00,34.5,22.8,29.90,WNW,289,10.0,19.0,62,0.00,,SCT042,0.00,VWS V14.01,2013-03-04 21:27:00,
2013-03-04 16:33:00,34.5,22.5,29.90,NNE,23,11.0,14.0,61,0.00,,SCT042,0.00,VWS V14.01,2013-03-04 21:33:00,
2013-03-04 16:38:00,34.3,22.3,29.90,WNW,288,6.0,17.0,61,0.00,,SCT042,0.00,VWS V14.01,2013-03-04 21:38:00,
2013-03-04 16:43:00,33.8,22.2,29.91,WNW,302,14.0,17.0,62,0.00,,SCT042,0.00,VWS V14.01,2013-03-04 21:43:00,
2013-03-04 16:48:00,33.4,22.2,29.91,West,276,13.0,15.0,63,0.00,,SCT042,0.00,VWS V14.01,2013-03-04 21:48:00,
2013-03-04 16:53:00,33.0,22.2,29.91,WSW,238,4.0,15.0,64,0.00,,SCT042,0.00,VWS V14.01,2013-03-04 21:53:00,
2013-03-04 16:58:00,33.0,22.5,29.91,WNW,289,11.0,14.0,65,0.00,,SCT042,0.00,VWS V14.01,2013-03-04 21:58:00,
2013-03-04 17:03:00,33.3,22.5,29.91,NNW,332,13.0,15.0,64,0.00,,CLR,0.00,VWS V14.01,2013-03-04 22:03:00,
2013-03-04 17:08:00,33.8,22.5,29.91,WNW,285,9.0,17.0,63,0.00,,CLR,0.00,VWS V14.01,2013-03-04 22:08:00,
2013-03-04 17:13:00,33.7,22.5,29.91,NW,308,8.0,18.0,63,0.00,,CLR,0.00,VWS V14.01,2013-03-04 22:13:00,
2013-03-04 17:18:00,33.6,22.4,29.92,WNW,290,8.0,18.0,63,0.00,,CLR,0.00,VWS V14.01,2013-03-04 22:18:00,
2013-03-04 17:23:00,33.3,22.8,29.92,WNW,294,8.0,12.0,65,0.00,,CLR,0.00,VWS V14.01,2013-03-04 22:23:00,
2013-03-04 17:28:00,33.3,22.5,29.92,NW,321,13.0,18.0,64,0.00,,CLR,0.00,VWS V14.01,2013-03-04 22:28:00,
2013-03-04 17:33:00,33.3,22.5,29.93,WNW,302,8.0,13.0,64,0.00,,CLR,0.00,VWS V14.01,2013-03-04 22:33:00,
2013-03-04 17:38:00,33.1,22.6,29.93,West,268,7.0,15.0,65,0.00,,CLR,0.00,VWS V14.01,2013-03-04 22:38:00,
2013-03-04 17:43:00,32.9,22.4,29.93,WNW,294,11.0,18.0,65,0.00,,CLR,0.00,VWS V14.01,2013-03-04 22:43:00,
2013-03-04 17:48:00,32.7,22.6,29.93,NW,314,5.0,16.0,66,0.00,,CLR,0.00,VWS V14.01,2013-03-04 22:48:00,
2013-03-04 17:54:00,32.5,22.4,29.93,NW,321,8.0,12.0,66,0.00,,CLR,0.00,VWS V14.01,2013-03-04 22:54:00,
2013-03-04 17:59:00,32.3,22.2,29.93,West,274,6.0,16.0,66,0.00,,CLR,0.00,VWS V14.01,2013-03-04 22:59:00,
2013-03-04 18:04:00,32.2,22.1,29.94,WNW,296,5.0,14.0,66,0.00,,SCT042,0.00,VWS V14.01,2013-03-04 23:04:00,
2013-03-04 18:09:00,32.1,22.0,29.94,WNW,288,6.0,15.0,66,0.00,,SCT042,0.00,VWS V14.01,2013-03-04 23:09:00,
2013-03-04 18:14:00,32.0,22.3,29.94,NW,323,5.0,15.0,67,0.00,,SCT042,0.00,VWS V14.01,2013-03-04 23:14:00,
2013-03-04 18:19:00,31.9,21.9,29.94,WNW,295,7.0,18.0,66,0.00,,SCT042,0.00,VWS V14.01,2013-03-04 23:19:00,
2013-03-04 18:24:00,31.9,21.9,29.94,WNW,297,11.0,18.0,66,0.00,,SCT042,0.00,VWS V14.01,2013-03-04 23:24:00,
2013-03-04 18:29:00,31.8,21.8,29.95,NW,304,12.0,19.0,66,0.00,,SCT042,0.00,VWS V14.01,2013-03-04 23:29:00,
2013-03-04 18:34:00,31.8,21.8,29.95,WNW,302,6.0,16.0,66,0.00,,SCT042,0.00,VWS V14.01,2013-03-04 23:34:00,
2013-03-04 18:39:00,31.7,22.0,29.95,NW,305,5.0,12.0,67,0.00,,SCT042,0.00,VWS V14.01,2013-03-04 23:39:00,
2013-03-04 18:44:00,31.7,21.7,29.95,West,276,10.0,17.0,66,0.00,,SCT042,0.00,VWS V14.01,2013-03-04 23:44:00,
2013-03-04 18:49:00,31.7,21.7,29.95,West,271,3.0,18.0,66,0.00,,SCT042,0.00,VWS V14.01,2013-03-04 23:49:00,
2013-03-04 18:54:00,31.4,21.7,29.95,WNW,297,5.0,10.0,67,0.00,,SCT042,0.00,VWS V14.01,2013-03-04 23:54:00,
2013-03-04 18:59:00,31.2,21.5,29.95,WNW,297,5.0,14.0,67,0.00,,SCT042,0.00,VWS V14.01,2013-03-04 23:59:00,
2013-03-04 19:04:00,31.0,21.7,29.96,West,269,6.0,10.0,68,0.00,,CLR,0.00,VWS V14.01,2013-03-05 00:04:00,
2013-03-04 19:09:00,31.0,21.7,29.96,WNW,295,11.0,13.0,68,0.00,,CLR,0.00,VWS V14.01,2013-03-05 00:09:00,
2013-03-04 19:14:00,30.9,21.6,29.96,NW,316,6.0,13.0,68,0.00,,CLR,0.00,VWS V14.01,2013-03-05 00:14:00,
2013-03-04 19:19:00,30.9,21.6,29.96,NNW,342,5.0,14.0,68,0.00,,CLR,0.00,VWS V14.01,2013-03-05 00:19:00,
2013-03-04 19:25:00,30.9,21.9,29.96,West,278,4.0,11.0,69,0.00,,CLR,0.00,VWS V14.01,2013-03-05 00:25:00,
2013-03-04 19:30:00,31.0,21.7,29.96,WNW,295,13.0,16.0,68,0.00,,CLR,0.00,VWS V14.01,2013-03-05 00:30:00,
2013-03-04 19:35:00,30.9,21.9,29.96,West,281,5.0,13.0,69,0.00,,CLR,0.00,VWS V14.01,2013-03-05 00:35:00,
2013-03-04 19:40:00,30.8,21.5,29.96,WNW,297,8.0,10.0,68,0.00,,CLR,0.00,VWS V14.01,2013-03-05 00:40:00,
2013-03-04 19:45:00,30.9,21.6,29.96,WNW,295,11.0,15.0,68,0.00,,CLR,0.00,VWS V14.01,2013-03-05 00:45:00,
2013-03-04 19:50:00,30.8,21.5,29.96,WSW,248,7.0,7.0,68,0.00,,CLR,0.00,VWS V14.01,2013-03-05 00:50:00,
2013-03-04 19:55:00,30.8,21.5,29.96,West,280,7.0,11.0,68,0.00,,CLR,0.00,VWS V14.01,2013-03-05 00:55:00,
2013-03-04 20:00:00,30.7,21.4,29.96,WNW,291,13.0,13.0,68,0.00,,CLR,0.00,VWS V14.01,2013-03-05 01:00:00,
2013-03-04 20:05:00,30.7,21.4,29.97,WNW,295,8.0,10.0,68,0.00,,SCT038,0.00,VWS V14.01,2013-03-05 01:05:00,
2013-03-04 20:10:00,30.6,21.6,29.97,WNW,288,6.0,9.0,69,0.00,,SCT038,0.00,VWS V14.01,2013-03-05 01:10:00,
2013-03-04 20:15:00,30.5,21.6,29.97,NW,312,8.0,13.0,69,0.00,,SCT038,0.00,VWS V14.01,2013-03-05 01:15:00,
2013-03-04 20:20:00,30.4,21.5,29.97,WNW,295,10.0,11.0,69,0.00,,SCT038,0.00,VWS V14.01,2013-03-05 01:20:00,
2013-03-04 20:25:00,30.4,21.5,29.97,WNW,285,8.0,14.0,69,0.00,,SCT038,0.00,VWS V14.01,2013-03-05 01:25:00,
2013-03-04 20:30:00,30.3,21.7,29.97,WNW,287,10.0,11.0,70,0.00,,SCT038,0.00,VWS V14.01,2013-03-05 01:30:00,
2013-03-04 20:35:00,30.2,21.6,29.97,NW,307,9.0,11.0,70,0.00,,SCT038,0.00,VWS V14.01,2013-03-05 01:35:00,
2013-03-04 20:41:00,30.1,21.5,29.98,West,269,3.0,10.0,70,0.00,,SCT038,0.00,VWS V14.01,2013-03-05 01:41:00,
2013-03-04 20:46:00,30.0,21.8,29.98,WNW,303,4.0,7.0,71,0.00,,SCT038,0.00,VWS V14.01,2013-03-05 01:46:00,
2013-03-04 20:51:00,29.8,21.6,29.98,NNW,346,4.0,8.0,71,0.00,,SCT038,0.00,VWS V14.01,2013-03-05 01:51:00,
2013-03-04 20:56:00,29.8,21.6,29.98,WNW,290,4.0,10.0,71,0.00,,SCT038,0.00,VWS V14.01,2013-03-05 01:56:00,
2013-03-04 21:01:00,29.8,21.6,29.98,WNW,283,4.0,9.0,71,0.00,,SCT038,0.00,VWS V14.01,2013-03-05 02:01:00,
2013-03-04 21:06:00,29.8,21.6,29.98,NW,304,8.0,11.0,71,0.00,,SCT038,0.00,VWS V14.01,2013-03-05 02:06:00,
2013-03-04 21:11:00,29.9,21.7,29.98,NNW,338,8.0,15.0,71,0.00,,SCT038,0.00,VWS V14.01,2013-03-05 02:11:00,
2013-03-04 21:16:00,29.9,21.7,29.98,West,281,7.0,10.0,71,0.00,,SCT038,0.00,VWS V14.01,2013-03-05 02:16:00,
2013-03-04 21:21:00,29.8,21.9,29.98,WNW,302,5.0,14.0,72,0.00,,SCT038,0.00,VWS V14.01,2013-03-05 02:21:00,
2013-03-04 21:26:00,29.7,21.8,29.99,WNW,301,3.0,8.0,72,0.00,,SCT038,0.00,VWS V14.01,2013-03-05 02:26:00,
2013-03-04 21:31:00,29.6,21.7,29.99,NW,319,6.0,11.0,72,0.00,,SCT038,0.00,VWS V14.01,2013-03-05 02:31:00,
2013-03-04 21:36:00,29.5,21.6,29.99,WNW,291,6.0,10.0,72,0.00,,CLR,0.00,VWS V14.01,2013-03-05 02:36:00,
2013-03-04 21:41:00,29.4,21.5,29.99,NNW,328,11.0,12.0,72,0.00,,CLR,0.00,VWS V14.01,2013-03-05 02:41:00,
2013-03-04 21:46:00,29.4,21.5,29.99,NW,305,8.0,11.0,72,0.00,,CLR,0.00,VWS V14.01,2013-03-05 02:46:00,
2013-03-04 21:51:00,29.3,21.4,29.99,WNW,283,4.0,14.0,72,0.00,,CLR,0.00,VWS V14.01,2013-03-05 02:51:00,
2013-03-04 21:56:00,29.2,21.3,29.99,NW,304,7.0,10.0,72,0.00,,CLR,0.00,VWS V14.01,2013-03-05 02:56:00,
2013-03-04 22:01:00,29.1,21.5,29.99,WNW,293,10.0,10.0,73,0.00,,CLR,0.00,VWS V14.01,2013-03-05 03:01:00,
2013-03-04 22:07:00,29.1,21.5,29.99,WNW,302,10.0,14.0,73,0.00,,CLR,0.00,VWS V14.01,2013-03-05 03:07:00,
2013-03-04 22:12:00,29.0,21.4,29.99,WNW,291,12.0,15.0,73,0.00,,CLR,0.00,VWS V14.01,2013-03-05 03:12:00,
2013-03-04 22:17:00,29.1,21.5,29.99,West,259,4.0,13.0,73,0.00,,CLR,0.00,VWS V14.01,2013-03-05 03:17:00,
2013-03-04 22:22:00,29.1,21.5,29.99,NW,305,5.0,11.0,73,0.00,,CLR,0.00,VWS V14.01,2013-03-05 03:22:00,
2013-03-04 22:27:00,29.2,21.6,29.99,WNW,285,5.0,14.0,73,0.00,,CLR,0.00,VWS V14.01,2013-03-05 03:27:00,
2013-03-04 22:32:00,29.3,21.7,29.99,WNW,303,8.0,12.0,73,0.00,,CLR,0.00,VWS V14.01,2013-03-05 03:32:00,
2013-03-04 22:37:00,29.2,21.3,29.99,WNW,284,6.0,11.0,72,0.00,,CLR,0.00,VWS V14.01,2013-03-05 03:37:00,
2013-03-04 22:42:00,29.2,21.6,29.99,WNW,301,3.0,12.0,73,0.00,,CLR,0.00,VWS V14.01,2013-03-05 03:42:00,
2013-03-04 22:47:00,29.2,21.3,30.00,WNW,283,5.0,13.0,72,0.00,,CLR,0.00,VWS V14.01,2013-03-05 03:47:00,
2013-03-04 22:52:00,29.3,21.4,30.00,West,277,4.0,15.0,72,0.00,,CLR,0.00,VWS V14.01,2013-03-05 03:52:00,
2013-03-04 22:57:00,29.3,21.4,30.00,North,350,4.0,13.0,72,0.00,,CLR,0.00,VWS V14.01,2013-03-05 03:57:00,
2013-03-04 23:02:00,29.4,21.5,30.00,WNW,302,5.0,17.0,72,0.00,,CLR,0.00,VWS V14.01,2013-03-05 04:02:00,
2013-03-04 23:07:00,29.4,21.5,30.00,West,277,3.0,7.0,72,0.00,,CLR,0.00,VWS V14.01,2013-03-05 04:07:00,
2013-03-04 23:12:00,29.4,21.5,30.00,WNW,292,5.0,12.0,72,0.00,,CLR,0.00,VWS V14.01,2013-03-05 04:12:00,
2013-03-04 23:17:00,29.3,21.4,30.00,WNW,285,3.0,6.0,72,0.00,,CLR,0.00,VWS V14.01,2013-03-05 04:17:00,
2013-03-04 23:22:00,29.3,21.4,30.00,WNW,300,3.0,11.0,72,0.00,,CLR,0.00,VWS V14.01,2013-03-05 04:22:00,
2013-03-04 23:28:00,29.3,21.4,30.00,NW,315,4.0,8.0,72,0.00,,CLR,0.00,VWS V14.01,2013-03-05 04:28:00,
2013-03-04 23:33:00,29.3,21.4,30.00,NW,314,8.0,11.0,72,0.00,,CLR,0.00,VWS V14.01,2013-03-05 04:33:00,
2013-03-04 23:38:00,29.3,21.4,30.00,WNW,288,5.0,13.0,72,0.00,,CLR,0.00,VWS V14.01,2013-03-05 04:38:00,
2013-03-04 23:43:00,29.3,21.4,30.00,West,276,6.0,10.0,72,0.00,,CLR,0.00,VWS V14.01,2013-03-05 04:43:00,
2013-03-04 23:48:00,29.3,21.4,30.00,WNW,285,10.0,15.0,72,0.00,,CLR,0.00,VWS V14.01,2013-03-05 04:48:00,
2013-03-04 23:53:00,29.3,21.4,30.00,WNW,296,9.0,14.0,72,0.00,,CLR,0.00,VWS V14.01,2013-03-05 04:53:00,
2013-03-04 23:58:00,29.3,21.4,30.00,NW,314,6.0,13.0,72,0.00,,CLR,0.00,VWS V14.01,2013-03-05 04:58:00,